Al Basrah, Iraq
Current Conditions -  °F | °C
As of 8:00 PM on Sunday 23 Nov 2014 (Local Time) from ORMM Reporting Station
Clear Clear  
Wind Chill: 64°   Ceiling: Unl
Heat Index: 64°   Visibility: 6mi
Dew Point: 52°   Wind: 0mph
Humidity: 64%   Direction: NA
Pressure: 29.94"   Gusts: NA
Location:  30.5°N, 47.83°E
Report Text: ORMM 231700Z 00000KT CAVOK 18/11 Q1014 NOSIG
Loading
Personal Weather Stations






























Interactive Weather Map New forecast layout! Learn more

10-Day Weather Forecast

Advertisements
Track Severe Weather on mobile